createdAt,value
2022-10-17T00:01:32.866Z,33.08
2022-10-17T00:03:59.512Z,36.03
2022-10-17T00:06:26.149Z,34.08
2022-10-17T00:08:52.844Z,36.33
2022-10-17T00:11:22.815Z,35.55
2022-10-17T00:16:34.555Z,29.42
2022-10-17T00:19:01.226Z,25.73
2022-10-17T00:21:29.421Z,27.48
2022-10-17T00:23:56.249Z,30.30
2022-10-17T00:26:23.453Z,30.98
2022-10-17T00:28:51.654Z,27.48
2022-10-17T00:31:20.284Z,25.77
2022-10-17T00:33:47.642Z,23.88
2022-10-17T00:36:21.035Z,22.92
2022-10-17T00:38:50.434Z,22.08
2022-10-17T00:41:19.524Z,23.92
2022-10-17T00:43:58.209Z,25.73
2022-10-17T00:46:30.904Z,26.52
2022-10-17T00:49:00.790Z,24.05
2022-10-17T00:54:17.543Z,26.90
2022-10-17T00:56:46.807Z,25.23
2022-10-17T00:59:16.184Z,27.08
2022-10-17T01:01:51.688Z,24.30
2022-10-17T01:04:19.503Z,22.50
2022-10-17T01:06:46.097Z,28.13
2022-10-17T01:09:12.807Z,26.67
2022-10-17T01:11:50.872Z,25.00
2022-10-17T01:14:17.453Z,23.63
2022-10-17T01:17:20.249Z,23.05
2022-10-17T01:20:11.775Z,31.98
2022-10-17T01:23:09.602Z,23.73
2022-10-17T01:25:44.888Z,23.98
2022-10-17T01:28:49.939Z,24.35
2022-10-17T01:31:23.070Z,26.40
2022-10-17T01:34:14.618Z,23.02
2022-10-17T01:37:04.443Z,23.60
2022-10-17T01:40:00.350Z,22.63
2022-10-17T01:42:31.589Z,23.20
2022-10-17T01:45:06.787Z,25.38
2022-10-17T01:47:34.694Z,31.63
2022-10-17T01:50:07.808Z,23.20
2022-10-17T01:52:40.074Z,24.45
2022-10-17T01:55:12.650Z,24.05
2022-10-17T01:57:44.027Z,23.63
2022-10-17T02:00:17.027Z,29.27
2022-10-17T02:02:46.661Z,21.92
2022-10-17T02:05:13.251Z,29.70
2022-10-17T02:07:41.930Z,22.65
2022-10-17T02:10:31.931Z,27.88
2022-10-17T02:15:57.500Z,27.35
2022-10-17T02:18:50.405Z,25.88
2022-10-17T02:21:38.116Z,36.30
2022-10-17T02:24:19.253Z,25.52
2022-10-17T02:26:59.016Z,23.17
2022-10-17T02:29:35.415Z,27.27
2022-10-17T02:34:50.468Z,24.10
2022-10-17T02:37:22.511Z,27.13
2022-10-17T02:39:50.850Z,29.02
2022-10-17T02:42:18.839Z,23.33
2022-10-17T02:44:46.415Z,27.40
2022-10-17T02:47:36.684Z,31.52
2022-10-17T02:50:04.249Z,25.60
2022-10-17T02:52:43.456Z,33.67
2022-10-17T02:55:16.670Z,25.60
2022-10-17T02:57:51.353Z,31.33
2022-10-17T03:00:19.136Z,29.65
2022-10-17T03:02:48.938Z,27.67
2022-10-17T03:05:20.875Z,28.40
2022-10-17T03:07:47.598Z,30.42
2022-10-17T03:10:14.341Z,26.35
2022-10-17T03:12:40.951Z,25.48
2022-10-17T03:15:07.977Z,28.00
2022-10-17T03:17:35.447Z,30.45
2022-10-17T03:20:02.332Z,27.95
2022-10-17T03:22:29.027Z,24.05
2022-10-17T03:24:55.791Z,30.23
2022-10-17T03:27:22.617Z,26.52
2022-10-17T03:29:49.309Z,28.13
2022-10-17T03:32:15.968Z,26.65
2022-10-17T03:34:42.588Z,28.33
2022-10-17T03:37:09.176Z,27.38
2022-10-17T03:39:35.766Z,23.63
2022-10-17T03:42:02.424Z,26.85
2022-10-17T03:44:29.025Z,27.88
2022-10-17T03:46:55.609Z,25.88
2022-10-17T03:49:22.246Z,24.40
2022-10-17T03:51:48.857Z,31.23
2022-10-17T03:54:15.447Z,22.55
2022-10-17T03:56:43.427Z,24.45
2022-10-17T03:59:14.985Z,29.25
2022-10-17T04:01:42.104Z,25.13
2022-10-17T04:04:09.431Z,23.65
2022-10-17T04:06:36.611Z,24.00
2022-10-17T04:09:04.729Z,22.73
2022-10-17T04:11:31.372Z,25.83
2022-10-17T04:13:59.683Z,24.85
2022-10-17T04:16:26.815Z,24.27
2022-10-17T04:18:58.350Z,28.63
2022-10-17T04:21:28.928Z,25.30
2022-10-17T04:23:57.567Z,25.05
2022-10-17T04:26:24.596Z,29.30
2022-10-17T04:28:51.520Z,25.02
2022-10-17T04:31:18.869Z,28.90
2022-10-17T04:33:50.155Z,28.23
2022-10-17T04:36:19.483Z,26.77
2022-10-17T04:38:46.781Z,32.40
2022-10-17T04:41:15.955Z,29.23
2022-10-17T04:43:45.584Z,29.58
2022-10-17T04:46:15.670Z,34.40
2022-10-17T04:48:42.613Z,37.50
2022-10-17T04:51:12.951Z,40.22
2022-10-17T04:53:40.779Z,26.65
2022-10-17T04:56:13.308Z,33.72
2022-10-17T04:58:40.987Z,36.67
2022-10-17T05:01:09.527Z,33.63
2022-10-17T05:03:36.400Z,31.95
2022-10-17T05:06:08.110Z,34.70
2022-10-17T05:08:35.716Z,32.80
2022-10-17T05:11:03.026Z,32.17
2022-10-17T05:13:29.765Z,26.45
2022-10-17T05:16:02.260Z,36.88
2022-10-17T05:18:29.374Z,30.17
2022-10-17T05:20:56.231Z,38.38
2022-10-17T05:23:23.195Z,34.90
2022-10-17T05:25:55.018Z,36.88
2022-10-17T05:28:22.382Z,28.40
2022-10-17T05:30:49.124Z,30.40
2022-10-17T05:33:16.025Z,26.98
2022-10-17T05:35:42.752Z,29.42
2022-10-17T05:38:09.339Z,30.92
2022-10-17T05:40:36.029Z,27.45
2022-10-17T05:43:02.623Z,26.35
2022-10-17T05:45:29.239Z,31.40
2022-10-17T05:47:55.852Z,29.13
2022-10-17T05:50:24.097Z,29.35
2022-10-17T05:52:54.175Z,27.33
2022-10-17T05:55:20.979Z,29.02
2022-10-17T05:57:47.599Z,28.77
2022-10-17T06:00:14.744Z,24.77
2022-10-17T06:02:41.957Z,25.63
2022-10-17T06:05:08.841Z,27.60
2022-10-17T06:07:35.979Z,31.90
2022-10-17T06:10:02.666Z,30.10
2022-10-17T06:12:29.498Z,38.65
2022-10-17T06:14:56.281Z,25.30
2022-10-17T06:17:23.073Z,34.40
2022-10-17T06:19:49.675Z,26.42
2022-10-17T06:22:16.504Z,32.03
2022-10-17T06:24:43.172Z,29.30
2022-10-17T06:27:11.946Z,27.70
2022-10-17T06:29:39.108Z,35.10
2022-10-17T06:32:07.730Z,28.13
2022-10-17T06:34:36.577Z,27.70
2022-10-17T06:37:03.284Z,34.22
2022-10-17T06:39:34.046Z,23.02
2022-10-17T06:42:01.697Z,28.95
2022-10-17T06:44:32.006Z,20.75
2022-10-17T06:47:00.019Z,24.23
2022-10-17T06:49:27.533Z,19.27
2022-10-17T06:51:54.836Z,17.50
2022-10-17T06:54:21.544Z,24.40
2022-10-17T06:56:48.166Z,20.30
2022-10-17T06:59:15.755Z,16.45
2022-10-17T07:01:46.047Z,23.10
2022-10-17T07:04:14.460Z,19.92
2022-10-17T07:06:41.399Z,28.33
2022-10-17T07:09:08.201Z,20.75
2022-10-17T07:11:35.239Z,18.15
2022-10-17T07:14:02.197Z,21.92
2022-10-17T07:16:29.033Z,19.88
2022-10-17T07:18:56.166Z,24.77
2022-10-17T07:21:22.807Z,27.02
2022-10-17T07:23:49.715Z,21.83
2022-10-17T07:26:17.568Z,24.00
2022-10-17T07:28:45.884Z,23.75
2022-10-17T07:31:16.065Z,22.73
2022-10-17T07:33:43.771Z,27.35
2022-10-17T07:36:11.209Z,25.85
2022-10-17T07:38:37.979Z,20.33
2022-10-17T07:41:06.994Z,18.63
2022-10-17T07:43:34.421Z,42.87
2022-10-17T07:46:02.348Z,20.27
2022-10-17T07:48:29.402Z,22.20
2022-10-17T07:50:56.032Z,32.28
2022-10-17T07:53:22.659Z,20.70
2022-10-17T07:55:49.829Z,27.38
2022-10-17T07:58:16.700Z,20.65
2022-10-17T08:00:43.565Z,19.48
2022-10-17T08:03:11.077Z,22.02
2022-10-17T08:05:37.702Z,16.25
2022-10-17T08:08:04.490Z,22.42
2022-10-17T08:10:31.174Z,30.85
2022-10-17T08:12:58.711Z,16.30
2022-10-17T08:15:29.403Z,18.38
2022-10-17T08:17:59.449Z,20.45
2022-10-17T08:20:26.243Z,17.52
2022-10-17T08:22:54.350Z,17.35
2022-10-17T08:25:21.695Z,21.88
2022-10-17T08:27:48.831Z,17.02
2022-10-17T08:30:15.962Z,18.63
2022-10-17T08:32:42.831Z,17.30
2022-10-17T08:35:09.808Z,22.15
2022-10-17T08:37:36.591Z,17.77
2022-10-17T08:40:03.972Z,14.85
2022-10-17T08:42:45.831Z,19.60
2022-10-17T08:45:29.745Z,12.20
2022-10-17T08:47:59.897Z,17.48
2022-10-17T08:50:47.943Z,18.13
2022-10-17T08:53:58.739Z,22.23
2022-10-17T08:56:49.544Z,31.77
2022-10-17T08:59:36.688Z,67.00
2022-10-17T09:02:14.287Z,73.15
2022-10-17T09:05:24.046Z,27.70
2022-10-17T09:08:20.089Z,37.53
2022-10-17T09:11:02.531Z,63.05
2022-10-17T09:13:49.298Z,93.65
2022-10-17T09:16:24.981Z,47.35
2022-10-17T09:19:02.988Z,54.47
2022-10-17T09:21:42.911Z,46.50
2022-10-17T09:24:20.722Z,38.17
2022-10-17T09:26:47.345Z,19.95
2022-10-17T09:29:28.625Z,12.85
2022-10-17T09:32:17.351Z,12.05
2022-10-17T09:34:44.181Z,12.80
2022-10-17T09:37:14.474Z,17.10
2022-10-17T09:39:42.312Z,17.25
2022-10-17T09:42:13.884Z,21.88
2022-10-17T09:44:45.494Z,15.65
2022-10-17T09:47:27.298Z,13.80
2022-10-17T09:49:54.224Z,15.48
2022-10-17T09:52:29.474Z,19.02
2022-10-17T09:55:15.723Z,13.63
2022-10-17T09:57:59.038Z,10.40
2022-10-17T10:00:34.580Z,18.95
2022-10-17T10:03:21.815Z,10.02
2022-10-17T10:06:06.767Z,13.85
2022-10-17T10:08:49.665Z,17.65
2022-10-17T10:11:17.769Z,17.90
2022-10-17T10:13:46.345Z,14.70
2022-10-17T10:16:16.167Z,13.35
2022-10-17T10:18:45.422Z,11.25
2022-10-17T10:21:15.346Z,10.05
2022-10-17T10:23:44.196Z,15.40
2022-10-17T10:26:23.976Z,11.25
2022-10-17T10:28:54.804Z,20.00
2022-10-17T10:31:31.499Z,9.88
2022-10-17T10:34:01.309Z,9.48
2022-10-17T10:36:44.510Z,14.07
2022-10-17T10:39:36.869Z,18.88
2022-10-17T10:42:07.500Z,15.32
2022-10-17T10:44:36.769Z,14.07
2022-10-17T10:47:17.286Z,25.38
2022-10-17T10:49:44.666Z,17.85
2022-10-17T10:52:43.308Z,12.75
2022-10-17T10:55:24.959Z,19.40
2022-10-17T10:57:55.989Z,14.45
2022-10-17T11:00:27.583Z,15.38
2022-10-17T11:02:54.272Z,9.20
2022-10-17T11:05:35.727Z,9.63
2022-10-17T11:08:36.206Z,11.77
2022-10-17T11:11:18.150Z,12.70
2022-10-17T11:13:53.377Z,12.43
2022-10-17T11:16:29.899Z,13.00
2022-10-17T11:18:59.509Z,16.13
2022-10-17T11:24:24.805Z,14.43
2022-10-17T11:27:06.398Z,18.00
2022-10-17T11:29:39.494Z,9.40
2022-10-17T11:32:13.858Z,16.33
2022-10-17T11:34:46.031Z,10.13
2022-10-17T11:37:19.000Z,10.80
2022-10-17T11:39:52.057Z,16.45
2022-10-17T11:42:27.535Z,15.70
2022-10-17T11:45:03.227Z,10.90
2022-10-17T11:47:47.156Z,19.33
2022-10-17T11:53:14.956Z,10.00
2022-10-17T11:55:43.549Z,17.20
2022-10-17T11:58:30.717Z,11.60
2022-10-17T12:01:03.395Z,25.50
2022-10-17T12:04:04.147Z,16.45
2022-10-17T12:07:06.067Z,12.63
2022-10-17T12:09:46.092Z,12.30
2022-10-17T12:12:27.082Z,17.08
2022-10-17T12:14:54.470Z,15.93
2022-10-17T12:17:33.086Z,20.17
2022-10-17T12:20:24.890Z,12.68
2022-10-17T12:22:51.495Z,14.88
2022-10-17T12:25:31.602Z,12.45
2022-10-17T12:28:07.609Z,11.63
2022-10-17T12:30:35.040Z,14.38
2022-10-17T12:33:25.720Z,15.77
2022-10-17T12:36:27.090Z,25.75
2022-10-17T12:38:56.615Z,17.52
2022-10-17T12:41:38.533Z,15.82
2022-10-17T12:44:14.643Z,12.05
2022-10-17T12:46:51.245Z,13.98
2022-10-17T12:49:38.090Z,14.15
2022-10-17T12:52:06.484Z,13.50
2022-10-17T12:54:47.686Z,11.13
2022-10-17T12:57:43.272Z,17.20
2022-10-17T13:02:43.044Z,10.38
2022-10-17T13:05:16.760Z,17.90
2022-10-17T13:07:47.239Z,11.50
2022-10-17T13:10:23.901Z,13.32
2022-10-17T13:12:53.876Z,20.33
2022-10-17T13:15:21.138Z,16.83
2022-10-17T13:17:56.138Z,14.43
2022-10-17T13:20:29.060Z,15.50
2022-10-17T13:22:58.828Z,29.52
2022-10-17T13:25:27.545Z,20.02
2022-10-17T13:28:12.011Z,23.93
2022-10-17T13:30:38.709Z,12.30
2022-10-17T13:33:27.812Z,14.15
2022-10-17T13:36:01.671Z,12.73
2022-10-17T13:38:32.600Z,18.20
2022-10-17T13:41:30.138Z,26.73
2022-10-17T13:43:48.003Z,20.95
2022-10-17T13:46:38.045Z,31.52
2022-10-17T13:49:23.304Z,27.73
2022-10-17T13:51:54.296Z,21.98
2022-10-17T13:54:40.631Z,24.73
2022-10-17T13:57:19.837Z,23.88
2022-10-17T13:59:50.132Z,21.52
2022-10-17T14:02:23.076Z,18.63
2022-10-17T14:05:17.792Z,10.23
2022-10-17T14:10:42.530Z,14.65
2022-10-17T14:13:22.358Z,14.90
2022-10-17T14:15:49.468Z,14.48
2022-10-17T14:18:24.164Z,16.10
2022-10-17T14:23:44.785Z,12.65
2022-10-17T14:26:16.990Z,26.15
2022-10-17T14:28:47.132Z,18.90
2022-10-17T14:31:29.473Z,23.50
2022-10-17T14:33:56.717Z,14.10
2022-10-17T14:36:42.739Z,19.63
2022-10-17T14:39:20.443Z,23.77
2022-10-17T14:41:48.032Z,21.13
2022-10-17T14:44:21.697Z,45.55
2022-10-17T14:46:52.904Z,37.92
2022-10-17T14:49:40.882Z,29.25
2022-10-17T14:52:18.391Z,39.58
2022-10-17T14:54:49.692Z,37.50
2022-10-17T14:57:31.712Z,35.67
2022-10-17T14:59:58.937Z,41.05
2022-10-17T15:02:29.536Z,37.60
2022-10-17T15:04:56.652Z,35.08
2022-10-17T15:07:24.099Z,25.55
2022-10-17T15:09:53.234Z,36.42
2022-10-17T15:12:23.602Z,27.20
2022-10-17T15:14:51.632Z,23.48
2022-10-17T15:17:27.066Z,29.15
2022-10-17T15:19:53.875Z,38.72
2022-10-17T15:22:20.626Z,48.15
2022-10-17T15:24:47.668Z,38.92
2022-10-17T15:27:23.482Z,45.33
2022-10-17T15:29:51.743Z,60.65
2022-10-17T15:32:18.794Z,69.47
2022-10-17T15:34:45.533Z,54.20
2022-10-17T15:37:24.440Z,48.70
2022-10-17T15:39:55.278Z,45.10
2022-10-17T15:42:23.699Z,45.50
2022-10-17T15:44:50.533Z,50.05
2022-10-17T15:47:26.088Z,50.35
2022-10-17T15:49:54.261Z,43.40
2022-10-17T15:52:22.072Z,53.53
2022-10-17T15:54:48.739Z,54.30
2022-10-17T15:57:24.724Z,42.70
2022-10-17T15:59:52.406Z,38.40
2022-10-17T16:02:20.547Z,41.53
2022-10-17T16:04:48.833Z,55.38
2022-10-17T16:07:15.565Z,50.75
2022-10-17T16:09:42.150Z,46.65
2022-10-17T16:12:26.625Z,49.83
2022-10-17T16:14:53.273Z,43.60
2022-10-17T16:17:20.109Z,47.95
2022-10-17T16:19:46.760Z,49.65
2022-10-17T16:22:32.713Z,47.08
2022-10-17T16:25:07.641Z,48.58
2022-10-17T16:27:34.296Z,56.10
2022-10-17T16:30:01.005Z,67.30
2022-10-17T16:32:27.785Z,65.38
2022-10-17T16:34:54.472Z,49.47
2022-10-17T16:37:21.090Z,56.47
2022-10-17T16:39:52.444Z,55.42
2022-10-17T16:42:20.683Z,62.47
2022-10-17T16:44:48.512Z,65.85
2022-10-17T16:47:15.508Z,96.45
2022-10-17T16:49:45.183Z,73.50
2022-10-17T16:52:12.820Z,47.72
2022-10-17T16:54:39.489Z,43.85
2022-10-17T16:57:06.128Z,34.88
2022-10-17T16:59:32.768Z,56.28
2022-10-17T17:01:59.496Z,42.92
2022-10-17T17:04:26.255Z,35.75
2022-10-17T17:06:52.923Z,45.28
2022-10-17T17:09:19.749Z,47.85
2022-10-17T17:11:46.460Z,39.22
2022-10-17T17:14:13.341Z,38.33
2022-10-17T17:16:40.088Z,35.20
2022-10-17T17:19:08.656Z,34.20
2022-10-17T17:21:35.700Z,27.17
2022-10-17T17:24:04.109Z,36.70
2022-10-17T17:26:33.853Z,30.25
2022-10-17T17:29:00.575Z,32.53
2022-10-17T17:31:30.901Z,26.90
2022-10-17T17:33:57.924Z,31.17
2022-10-17T17:36:31.449Z,24.45
2022-10-17T17:39:00.661Z,30.75
2022-10-17T17:41:28.045Z,25.70
2022-10-17T17:43:55.811Z,27.25
2022-10-17T17:46:23.976Z,28.13
2022-10-17T17:48:51.754Z,27.35
2022-10-17T17:51:21.772Z,21.08
2022-10-17T17:53:54.380Z,19.50
2022-10-17T17:56:26.868Z,20.73
2022-10-17T17:59:01.745Z,20.90
2022-10-17T18:01:31.940Z,29.85
2022-10-17T18:03:59.161Z,21.10
2022-10-17T18:06:26.899Z,21.13
2022-10-17T18:08:56.304Z,21.30
2022-10-17T18:11:22.930Z,21.20
2022-10-17T18:13:54.660Z,16.70
2022-10-17T18:16:21.329Z,20.13
2022-10-17T18:18:47.975Z,16.83
2022-10-17T18:21:14.784Z,24.45
2022-10-17T18:23:43.059Z,21.80
2022-10-17T18:26:10.212Z,23.33
2022-10-17T18:28:39.429Z,27.40
2022-10-17T18:31:07.919Z,31.35
2022-10-17T18:33:35.321Z,22.38
2022-10-17T18:36:07.063Z,19.33
2022-10-17T18:38:34.191Z,25.92
2022-10-17T18:41:09.803Z,20.23
2022-10-17T18:43:37.975Z,22.67
2022-10-17T18:46:12.423Z,21.40
2022-10-17T18:48:47.095Z,17.30
2022-10-17T18:51:15.631Z,32.20
2022-10-17T18:53:44.684Z,26.17
2022-10-17T18:56:13.540Z,34.00
2022-10-17T18:58:42.186Z,23.52
2022-10-17T19:01:15.434Z,22.25
2022-10-17T19:03:45.731Z,29.95
2022-10-17T19:06:15.932Z,23.10
2022-10-17T19:08:45.778Z,20.05
2022-10-17T19:11:17.883Z,22.67
2022-10-17T19:16:26.976Z,31.23
2022-10-17T19:19:10.180Z,25.77
2022-10-17T19:21:37.579Z,24.45
2022-10-17T19:24:06.740Z,28.10
2022-10-17T19:26:35.677Z,25.63
2022-10-17T19:29:03.037Z,31.75
2022-10-17T19:31:31.819Z,26.02
2022-10-17T19:33:59.790Z,49.10
2022-10-17T19:36:32.393Z,141.43
2022-10-17T19:39:05.448Z,145.77
2022-10-17T19:41:32.528Z,93.88
2022-10-17T19:44:00.550Z,117.63
2022-10-17T19:46:28.895Z,121.45
2022-10-17T19:48:55.972Z,91.50
2022-10-17T19:51:27.011Z,88.63
2022-10-17T19:53:55.580Z,50.08
2022-10-17T19:56:24.697Z,73.20
2022-10-17T19:58:51.620Z,63.13
2022-10-17T20:01:21.352Z,56.28
2022-10-17T20:03:48.537Z,81.05
2022-10-17T20:06:15.972Z,121.55
2022-10-17T20:08:42.805Z,117.53
2022-10-17T20:11:14.966Z,73.80
2022-10-17T20:13:42.262Z,54.25
2022-10-17T20:16:12.232Z,42.30
2022-10-17T20:18:40.850Z,37.40
2022-10-17T20:21:13.919Z,35.08
2022-10-17T20:23:41.489Z,36.60
2022-10-17T20:26:33.191Z,30.63
2022-10-17T20:29:01.718Z,29.75
2022-10-17T20:31:28.779Z,30.45
2022-10-17T20:33:59.979Z,31.27
2022-10-17T20:36:26.939Z,22.10
2022-10-17T20:38:57.859Z,23.48
2022-10-17T20:41:26.255Z,25.60
2022-10-17T20:43:54.453Z,30.98
2022-10-17T20:46:35.925Z,26.58
2022-10-17T20:49:04.508Z,27.50
2022-10-17T20:51:31.161Z,29.45
2022-10-17T20:53:57.925Z,28.55
2022-10-17T20:56:29.932Z,24.58
2022-10-17T20:58:59.068Z,32.33
2022-10-17T21:01:26.750Z,29.50
2022-10-17T21:03:53.973Z,30.90
2022-10-17T21:06:21.719Z,35.63
2022-10-17T21:08:49.258Z,32.88
2022-10-17T21:11:18.489Z,28.27
2022-10-17T21:13:45.991Z,22.00
2022-10-17T21:16:15.554Z,32.85
2022-10-17T21:18:42.724Z,28.23
2022-10-17T21:21:21.240Z,25.85
2022-10-17T21:23:50.168Z,26.33
2022-10-17T21:26:18.010Z,29.33
2022-10-17T21:28:46.018Z,28.75
2022-10-17T21:31:21.110Z,30.10
2022-10-17T21:33:59.066Z,26.70
2022-10-17T21:36:26.846Z,24.70
2022-10-17T21:38:55.001Z,27.20
2022-10-17T21:41:24.328Z,32.50
2022-10-17T21:43:58.860Z,25.55
2022-10-17T21:46:26.394Z,22.27
2022-10-17T21:48:53.400Z,17.98
2022-10-17T21:51:25.353Z,26.52
2022-10-17T21:53:53.983Z,24.58
2022-10-17T21:56:22.955Z,25.83
2022-10-17T21:58:50.987Z,22.52
2022-10-17T22:01:23.466Z,28.63
2022-10-17T22:03:52.764Z,22.35
2022-10-17T22:09:14.255Z,19.17
2022-10-17T22:11:41.889Z,18.73
2022-10-17T22:14:15.587Z,20.70
2022-10-17T22:16:45.028Z,24.63
2022-10-17T22:19:13.019Z,20.88
2022-10-17T22:21:40.045Z,28.38
2022-10-17T22:24:08.689Z,23.13
2022-10-17T22:26:37.428Z,21.98
2022-10-17T22:29:06.175Z,22.35
2022-10-17T22:31:32.822Z,24.17
2022-10-17T22:33:59.661Z,22.55
2022-10-17T22:36:26.837Z,29.92
2022-10-17T22:38:53.596Z,22.98
2022-10-17T22:41:20.629Z,24.58
2022-10-17T22:43:47.299Z,23.05
2022-10-17T22:46:16.671Z,21.33
2022-10-17T22:48:43.751Z,26.63
2022-10-17T22:51:10.903Z,23.95
2022-10-17T22:53:37.940Z,24.70
2022-10-17T22:56:13.968Z,26.92
2022-10-17T22:58:40.705Z,24.67
2022-10-17T23:01:10.026Z,22.13
2022-10-17T23:03:36.788Z,25.75
2022-10-17T23:06:03.991Z,31.45
2022-10-17T23:08:31.248Z,23.77
2022-10-17T23:10:58.216Z,22.15
2022-10-17T23:13:25.088Z,29.30
2022-10-17T23:15:56.490Z,20.73
2022-10-17T23:18:24.911Z,24.63
2022-10-17T23:20:52.494Z,24.38
2022-10-17T23:23:19.539Z,26.65
2022-10-17T23:25:46.683Z,25.75
2022-10-17T23:28:14.093Z,28.85
2022-10-17T23:30:41.077Z,26.13
2022-10-17T23:33:09.553Z,29.23
2022-10-17T23:35:36.160Z,23.98
2022-10-17T23:38:03.639Z,22.35
2022-10-17T23:40:30.610Z,24.35
2022-10-17T23:42:57.190Z,27.98
2022-10-17T23:45:23.862Z,26.17
2022-10-17T23:47:50.483Z,23.20
2022-10-17T23:50:17.110Z,23.70
2022-10-17T23:52:43.893Z,24.50
2022-10-17T23:55:10.992Z,24.40
2022-10-17T23:57:37.602Z,26.15
